createdAt,value
2017-11-07T00:01:42.584Z,20.80
2017-11-07T00:04:10.074Z,18.02
2017-11-07T00:06:37.344Z,19.25
2017-11-07T00:09:04.099Z,16.98
2017-11-07T00:11:31.183Z,15.32
2017-11-07T00:13:59.171Z,16.10
2017-11-07T00:16:27.190Z,16.65
2017-11-07T00:18:53.781Z,15.77
2017-11-07T00:21:20.907Z,16.65
2017-11-07T00:23:47.860Z,16.35
2017-11-07T00:26:14.836Z,14.48
2017-11-07T00:28:41.336Z,13.30
2017-11-07T00:31:08.620Z,14.93
2017-11-07T00:33:35.661Z,15.60
2017-11-07T00:36:01.952Z,15.80
2017-11-07T00:38:28.183Z,14.45
2017-11-07T00:40:55.282Z,15.50
2017-11-07T00:43:21.486Z,15.88
2017-11-07T00:45:47.708Z,18.10
2017-11-07T00:48:14.459Z,18.23
2017-11-07T00:50:41.802Z,16.00
2017-11-07T00:53:09.032Z,15.48
2017-11-07T00:55:36.136Z,13.82
2017-11-07T00:58:03.280Z,15.45
2017-11-07T01:00:30.045Z,15.93
2017-11-07T01:02:56.257Z,18.83
2017-11-07T01:07:56.153Z,20.88
2017-11-07T01:10:22.376Z,18.27
2017-11-07T01:12:49.482Z,18.80
2017-11-07T01:15:17.628Z,17.50
2017-11-07T01:17:44.365Z,16.17
2017-11-07T01:20:11.635Z,14.32
2017-11-07T01:22:38.399Z,12.07
2017-11-07T01:25:04.740Z,18.33
2017-11-07T01:27:33.337Z,12.82
2017-11-07T01:30:01.877Z,15.65
2017-11-07T01:32:28.851Z,13.43
2017-11-07T01:34:56.342Z,14.25
2017-11-07T01:37:22.614Z,15.20
2017-11-07T01:39:48.826Z,14.63
2017-11-07T01:42:16.193Z,16.08
2017-11-07T01:44:42.667Z,18.05
2017-11-07T01:47:10.366Z,16.98
2017-11-07T01:49:37.019Z,17.45
2017-11-07T01:52:04.633Z,13.70
2017-11-07T01:54:32.647Z,18.55
2017-11-07T01:57:04.573Z,18.83
2017-11-07T01:59:32.506Z,17.83
2017-11-07T02:01:58.724Z,20.05
2017-11-07T02:04:24.925Z,19.73
2017-11-07T02:06:51.232Z,16.37
2017-11-07T02:09:18.101Z,17.45
2017-11-07T02:11:44.563Z,14.75
2017-11-07T02:14:11.839Z,17.75
2017-11-07T02:16:39.725Z,14.10
2017-11-07T02:19:07.270Z,16.77
2017-11-07T02:21:33.870Z,17.67
2017-11-07T02:24:01.551Z,19.50
2017-11-07T02:26:29.019Z,17.08
2017-11-07T02:28:56.491Z,19.83
2017-11-07T02:31:23.529Z,16.52
2017-11-07T02:33:49.783Z,14.98
2017-11-07T02:36:16.070Z,14.38
2017-11-07T02:38:44.055Z,14.43
2017-11-07T02:41:10.603Z,15.02
2017-11-07T02:43:38.213Z,13.70
2017-11-07T02:46:05.456Z,12.85
2017-11-07T02:48:32.480Z,21.52
2017-11-07T02:50:59.719Z,15.05
2017-11-07T02:53:25.948Z,10.75
2017-11-07T02:55:53.177Z,11.10
2017-11-07T02:58:20.337Z,9.40
2017-11-07T03:00:47.591Z,6.47
2017-11-07T03:03:14.629Z,5.60
2017-11-07T03:05:41.404Z,4.00
2017-11-07T03:08:07.598Z,3.67
2017-11-07T03:10:34.527Z,3.40
2017-11-07T03:13:01.798Z,3.72
2017-11-07T03:15:29.978Z,3.60
2017-11-07T03:17:56.703Z,2.70
2017-11-07T03:20:23.054Z,3.00
2017-11-07T03:22:49.887Z,3.35
2017-11-07T03:25:16.086Z,2.60
2017-11-07T03:27:43.188Z,2.97
2017-11-07T03:30:09.967Z,3.58
2017-11-07T03:32:37.583Z,3.50
2017-11-07T03:35:03.836Z,3.08
2017-11-07T03:37:30.940Z,3.85
2017-11-07T03:39:57.733Z,4.25
2017-11-07T03:42:24.449Z,3.90
2017-11-07T03:44:51.050Z,4.28
2017-11-07T03:47:18.140Z,4.62
2017-11-07T03:52:37.993Z,5.85
2017-11-07T03:55:04.204Z,5.53
2017-11-07T03:57:31.263Z,6.68
2017-11-07T03:59:58.056Z,6.95
2017-11-07T04:02:24.284Z,5.93
2017-11-07T04:04:50.472Z,7.03
2017-11-07T04:07:16.866Z,6.57
2017-11-07T04:09:43.648Z,6.75
2017-11-07T04:12:09.895Z,7.20
2017-11-07T04:14:36.658Z,6.68
2017-11-07T04:17:03.539Z,6.70
2017-11-07T04:19:31.173Z,7.60
2017-11-07T04:21:57.957Z,6.90
2017-11-07T04:24:24.726Z,7.00
2017-11-07T04:26:51.492Z,7.50
2017-11-07T04:29:17.722Z,6.95
2017-11-07T04:31:43.955Z,6.90
2017-11-07T04:34:10.469Z,5.97
2017-11-07T04:36:38.135Z,6.25
2017-11-07T04:39:04.348Z,6.68
2017-11-07T04:41:30.935Z,7.45
2017-11-07T04:43:57.890Z,5.70
2017-11-07T04:46:24.381Z,7.47
2017-11-07T04:48:51.816Z,7.00
2017-11-07T04:51:19.365Z,6.80
2017-11-07T04:53:45.637Z,6.95
2017-11-07T04:56:11.866Z,7.57
2017-11-07T04:58:38.615Z,8.20
2017-11-07T05:01:06.658Z,6.55
2017-11-07T05:03:33.470Z,7.85
2017-11-07T05:06:01.038Z,8.30
2017-11-07T05:18:13.454Z,7.20
2017-11-07T05:20:41.394Z,7.20
2017-11-07T05:23:08.633Z,8.35
2017-11-07T05:25:34.872Z,8.80
2017-11-07T05:28:02.097Z,7.75
2017-11-07T05:30:29.040Z,7.47
2017-11-07T05:32:55.527Z,7.95
2017-11-07T05:35:22.499Z,8.73
2017-11-07T05:37:48.701Z,8.77
2017-11-07T05:40:16.730Z,8.18
2017-11-07T05:42:44.645Z,8.88
2017-11-07T05:45:12.490Z,8.57
2017-11-07T05:47:39.492Z,8.93
2017-11-07T05:50:05.731Z,7.30
2017-11-07T05:52:32.034Z,7.55
2017-11-07T05:54:58.471Z,7.93
2017-11-07T05:57:24.720Z,8.45
2017-11-07T05:59:50.927Z,8.73
2017-11-07T06:02:17.271Z,9.30
2017-11-07T06:04:43.489Z,9.02
2017-11-07T06:07:11.149Z,8.50
2017-11-07T06:09:37.414Z,8.02
2017-11-07T06:12:05.206Z,9.20
2017-11-07T06:14:31.552Z,7.80
2017-11-07T06:16:59.171Z,9.38
2017-11-07T06:19:25.767Z,7.37
2017-11-07T06:21:52.932Z,9.15
2017-11-07T06:24:19.160Z,9.93
2017-11-07T06:26:45.403Z,9.00
2017-11-07T06:29:12.521Z,7.50
2017-11-07T06:31:39.239Z,8.68
2017-11-07T06:34:06.255Z,9.88
2017-11-07T06:36:33.265Z,11.32
2017-11-07T06:39:00.000Z,12.15
2017-11-07T06:41:26.201Z,14.55
2017-11-07T06:43:53.730Z,18.02
2017-11-07T06:46:20.693Z,16.37
2017-11-07T06:48:47.286Z,13.62
2017-11-07T06:51:15.529Z,12.45
2017-11-07T06:53:42.419Z,13.82
2017-11-07T06:56:09.048Z,13.30
2017-11-07T06:58:35.276Z,15.05
2017-11-07T07:01:02.080Z,18.67
2017-11-07T07:03:29.758Z,15.10
2017-11-07T07:05:56.112Z,14.50
2017-11-07T07:08:22.739Z,13.98
2017-11-07T07:10:50.864Z,16.02
2017-11-07T07:13:18.657Z,16.37
2017-11-07T07:15:45.450Z,14.38
2017-11-07T07:18:11.776Z,16.48
2017-11-07T07:20:38.712Z,16.75
2017-11-07T07:23:04.938Z,13.73
2017-11-07T07:25:31.991Z,15.77
2017-11-07T07:27:58.204Z,15.10
2017-11-07T07:30:25.430Z,16.40
2017-11-07T07:32:52.159Z,14.27
2017-11-07T07:35:19.199Z,14.98
2017-11-07T07:37:45.444Z,14.45
2017-11-07T07:40:12.647Z,13.30
2017-11-07T07:42:38.851Z,14.60
2017-11-07T07:45:05.540Z,15.07
2017-11-07T07:47:32.355Z,14.18
2017-11-07T07:49:58.599Z,13.90
2017-11-07T07:52:26.152Z,14.35
2017-11-07T07:54:53.912Z,13.18
2017-11-07T07:57:20.857Z,14.85
2017-11-07T07:59:49.069Z,13.80
2017-11-07T08:02:16.751Z,14.30
2017-11-07T08:04:43.926Z,13.32
2017-11-07T08:07:10.715Z,13.57
2017-11-07T08:09:38.232Z,14.32
2017-11-07T08:12:05.949Z,15.07
2017-11-07T08:14:32.259Z,14.45
2017-11-07T08:16:59.627Z,15.95
2017-11-07T08:19:26.877Z,16.12
2017-11-07T08:21:54.463Z,15.20
2017-11-07T08:24:20.707Z,16.35
2017-11-07T08:26:47.294Z,15.27
2017-11-07T08:29:14.346Z,16.60
2017-11-07T08:31:40.584Z,13.75
2017-11-07T08:34:07.448Z,14.93
2017-11-07T08:36:35.707Z,14.95
2017-11-07T08:39:03.571Z,19.70
2017-11-07T08:41:31.174Z,14.15
2017-11-07T08:43:57.584Z,14.55
2017-11-07T08:46:24.400Z,15.50
2017-11-07T08:48:50.609Z,17.00
2017-11-07T08:51:17.088Z,14.87
2017-11-07T08:53:44.519Z,14.98
2017-11-07T08:56:11.327Z,15.52
2017-11-07T08:58:38.943Z,16.20
2017-11-07T09:01:05.748Z,16.65
2017-11-07T09:03:32.493Z,14.63
2017-11-07T09:05:59.575Z,14.23
2017-11-07T09:08:26.293Z,14.40
2017-11-07T09:10:54.326Z,14.95
2017-11-07T09:13:28.396Z,14.45
2017-11-07T09:15:56.474Z,15.05
2017-11-07T09:18:22.984Z,14.75
2017-11-07T09:20:49.862Z,13.98
2017-11-07T09:23:16.314Z,14.38
2017-11-07T09:25:43.429Z,14.48
2017-11-07T09:28:10.559Z,13.80
2017-11-07T09:30:37.819Z,14.32
2017-11-07T09:33:05.441Z,12.98
2017-11-07T09:35:31.667Z,13.77
2017-11-07T09:37:59.326Z,13.05
2017-11-07T09:40:26.891Z,13.85
2017-11-07T09:42:53.678Z,13.85
2017-11-07T09:45:20.023Z,13.13
2017-11-07T09:47:46.260Z,12.75
2017-11-07T09:50:13.565Z,14.43
2017-11-07T09:52:41.071Z,13.18
2017-11-07T09:55:09.138Z,12.60
2017-11-07T10:00:10.898Z,13.73
2017-11-07T10:02:37.123Z,13.57
2017-11-07T10:05:04.783Z,15.00
2017-11-07T10:07:31.399Z,13.68
2017-11-07T10:09:58.431Z,14.65
2017-11-07T10:12:26.208Z,14.85
2017-11-07T10:14:52.909Z,15.15
2017-11-07T10:17:19.188Z,14.32
2017-11-07T10:19:45.443Z,14.48
2017-11-07T10:22:14.358Z,13.82
2017-11-07T10:24:41.294Z,14.00
2017-11-07T10:27:08.984Z,14.85
2017-11-07T10:29:36.754Z,14.13
2017-11-07T10:32:02.995Z,14.40
2017-11-07T10:34:29.248Z,14.63
2017-11-07T10:36:55.579Z,13.80
2017-11-07T10:39:21.921Z,15.20
2017-11-07T10:41:48.926Z,14.00
2017-11-07T10:44:16.783Z,15.05
2017-11-07T10:46:44.017Z,14.35
2017-11-07T10:49:10.495Z,14.98
2017-11-07T10:51:37.921Z,13.93
2017-11-07T10:54:04.158Z,14.43
2017-11-07T10:56:31.131Z,13.43
2017-11-07T10:58:58.612Z,14.15
2017-11-07T11:01:26.282Z,14.45
2017-11-07T11:03:53.663Z,14.18
2017-11-07T11:06:21.224Z,15.82
2017-11-07T11:08:48.586Z,14.13
2017-11-07T11:11:15.307Z,14.18
2017-11-07T11:13:41.574Z,13.75
2017-11-07T11:16:07.786Z,14.45
2017-11-07T11:18:34.649Z,14.35
2017-11-07T11:21:01.281Z,14.65
2017-11-07T11:23:27.516Z,14.55
2017-11-07T11:25:53.733Z,13.32
2017-11-07T11:28:20.500Z,14.73
2017-11-07T11:30:47.484Z,14.50
2017-11-07T11:33:15.254Z,14.32
2017-11-07T11:35:41.523Z,13.83
2017-11-07T11:38:08.586Z,14.13
2017-11-07T11:40:34.868Z,15.63
2017-11-07T11:43:01.722Z,14.23
2017-11-07T11:45:27.949Z,14.03
2017-11-07T11:47:55.183Z,13.77
2017-11-07T11:50:22.018Z,13.88
2017-11-07T11:52:48.397Z,14.03
2017-11-07T11:55:15.306Z,15.93
2017-11-07T11:57:41.902Z,14.33
2017-11-07T12:00:08.517Z,14.55
2017-11-07T12:02:35.240Z,13.53
2017-11-07T12:05:02.120Z,13.77
2017-11-07T12:07:29.769Z,14.57
2017-11-07T12:09:56.059Z,14.27
2017-11-07T12:12:23.304Z,14.37
2017-11-07T12:14:50.664Z,14.33
2017-11-07T12:17:17.514Z,14.80
2017-11-07T12:19:44.860Z,14.07
2017-11-07T12:22:11.101Z,15.20
2017-11-07T12:24:37.970Z,14.07
2017-11-07T12:27:04.457Z,14.95
2017-11-07T12:29:31.325Z,13.67
2017-11-07T12:31:57.567Z,14.50
2017-11-07T12:34:23.900Z,13.73
2017-11-07T12:36:51.251Z,14.50
2017-11-07T12:39:18.518Z,14.17
2017-11-07T12:41:46.237Z,14.50
2017-11-07T12:44:12.569Z,14.00
2017-11-07T12:46:38.802Z,15.30
2017-11-07T12:49:05.028Z,15.43
2017-11-07T12:51:38.486Z,13.55
2017-11-07T12:54:04.711Z,14.65
2017-11-07T12:56:30.935Z,14.10
2017-11-07T12:58:58.929Z,13.77
2017-11-07T13:01:26.948Z,15.15
2017-11-07T13:03:53.219Z,14.43
2017-11-07T13:06:20.179Z,14.70
2017-11-07T13:08:46.433Z,14.05
2017-11-07T13:11:13.573Z,14.90
2017-11-07T13:13:40.177Z,15.38
2017-11-07T13:16:06.812Z,14.90
2017-11-07T13:18:33.041Z,15.32
2017-11-07T13:20:59.824Z,15.60
2017-11-07T13:23:26.929Z,14.85
2017-11-07T13:25:53.670Z,16.33
2017-11-07T13:28:20.413Z,17.27
2017-11-07T13:30:47.304Z,16.87
2017-11-07T13:33:14.050Z,15.90
2017-11-07T13:35:40.589Z,17.98
2017-11-07T13:38:08.134Z,17.25
2017-11-07T13:40:34.923Z,14.43
2017-11-07T13:43:01.378Z,16.77
2017-11-07T13:45:27.614Z,15.70
2017-11-07T13:47:53.832Z,16.55
2017-11-07T13:50:20.576Z,16.77
2017-11-07T13:52:47.356Z,17.15
2017-11-07T13:55:13.837Z,17.05
2017-11-07T13:57:40.267Z,17.27
2017-11-07T14:00:06.855Z,17.17
2017-11-07T14:02:33.055Z,17.55
2017-11-07T14:04:59.264Z,16.70
2017-11-07T14:07:25.722Z,16.20
2017-11-07T14:09:53.897Z,16.25
2017-11-07T14:12:21.351Z,16.00
2017-11-07T14:14:49.864Z,17.80
2017-11-07T14:17:17.432Z,16.95
2017-11-07T14:19:44.355Z,17.92
2017-11-07T14:22:11.759Z,17.23
2017-11-07T14:24:38.561Z,16.45
2017-11-07T14:27:05.085Z,15.50
2017-11-07T14:29:32.744Z,17.45
2017-11-07T14:31:58.985Z,17.15
2017-11-07T14:34:26.234Z,18.37
2017-11-07T14:36:52.460Z,18.55
2017-11-07T14:39:19.237Z,18.10
2017-11-07T14:41:46.003Z,17.45
2017-11-07T14:44:13.252Z,17.87
2017-11-07T14:46:40.938Z,16.33
2017-11-07T14:49:07.160Z,16.83
2017-11-07T14:51:34.027Z,16.12
2017-11-07T14:54:01.423Z,17.12
2017-11-07T14:56:30.104Z,17.55
2017-11-07T14:58:56.874Z,17.33
2017-11-07T15:01:24.114Z,16.20
2017-11-07T15:03:50.380Z,18.02
2017-11-07T15:06:17.251Z,17.80
2017-11-07T15:08:44.219Z,16.98
2017-11-07T15:11:11.141Z,17.70
2017-11-07T15:13:38.743Z,18.83
2017-11-07T15:16:05.567Z,18.00
2017-11-07T15:18:32.604Z,17.33
2017-11-07T15:20:59.430Z,17.35
2017-11-07T15:23:26.643Z,19.00
2017-11-07T15:25:53.675Z,18.23
2017-11-07T15:28:21.428Z,18.02
2017-11-07T15:30:47.652Z,17.98
2017-11-07T15:33:14.862Z,18.02
2017-11-07T15:35:41.630Z,17.50
2017-11-07T15:38:07.913Z,16.50
2017-11-07T15:40:34.596Z,17.48
2017-11-07T15:43:01.457Z,18.33
2017-11-07T15:45:27.692Z,18.87
2017-11-07T15:47:55.441Z,19.40
2017-11-07T15:50:21.674Z,19.05
2017-11-07T15:52:48.433Z,17.95
2017-11-07T15:55:14.707Z,16.80
2017-11-07T16:10:47.215Z,19.20
2017-11-07T16:13:13.671Z,17.58
2017-11-07T16:15:40.690Z,19.58
2017-11-07T16:18:07.012Z,19.55
2017-11-07T16:20:33.494Z,19.52
2017-11-07T16:23:01.001Z,20.35
2017-11-07T16:25:27.346Z,18.73
2017-11-07T16:27:53.663Z,20.48
2017-11-07T16:30:19.892Z,20.55
2017-11-07T16:32:46.990Z,20.45
2017-11-07T16:35:17.463Z,21.10
2017-11-07T16:37:44.498Z,19.70
2017-11-07T16:40:11.521Z,20.33
2017-11-07T16:42:39.195Z,21.15
2017-11-07T16:45:06.754Z,19.55
2017-11-07T16:47:34.244Z,21.05
2017-11-07T16:59:49.571Z,20.35
2017-11-07T17:02:15.856Z,21.92
2017-11-07T17:04:42.427Z,20.40
2017-11-07T17:07:09.528Z,20.90
2017-11-07T17:09:36.851Z,20.70
2017-11-07T17:12:04.019Z,19.77
2017-11-07T17:14:30.660Z,21.83
2017-11-07T17:16:58.198Z,21.05
2017-11-07T17:19:26.444Z,20.05
2017-11-07T17:21:53.551Z,21.92
2017-11-07T17:24:20.451Z,21.62
2017-11-07T17:26:46.813Z,20.55
2017-11-07T17:29:13.420Z,19.65
2017-11-07T17:31:39.736Z,21.08
2017-11-07T17:34:06.971Z,21.40
2017-11-07T17:36:34.948Z,23.45
2017-11-07T17:39:01.500Z,21.45
2017-11-07T17:41:28.743Z,21.58
2017-11-07T17:43:54.998Z,23.40
2017-11-07T17:46:21.463Z,21.12
2017-11-07T17:48:49.435Z,20.92
2017-11-07T17:51:16.392Z,20.95
2017-11-07T17:53:43.582Z,19.15
2017-11-07T17:56:10.751Z,20.62
2017-11-07T17:58:37.004Z,22.73
2017-11-07T18:01:03.970Z,21.08
2017-11-07T18:03:30.946Z,21.62
2017-11-07T18:05:57.233Z,20.70
2017-11-07T18:08:23.570Z,20.70
2017-11-07T18:10:50.356Z,20.58
2017-11-07T18:13:17.577Z,19.65
2017-11-07T18:15:45.075Z,19.83
2017-11-07T18:18:12.198Z,20.98
2017-11-07T18:20:39.120Z,18.80
2017-11-07T18:23:06.584Z,20.73
2017-11-07T18:25:34.555Z,20.35
2017-11-07T18:28:01.531Z,19.05
2017-11-07T18:30:28.090Z,18.50
2017-11-07T18:32:56.277Z,18.45
2017-11-07T18:35:24.402Z,18.92
2017-11-07T18:37:51.641Z,19.10
2017-11-07T18:40:19.209Z,19.17
2017-11-07T18:42:45.954Z,18.77
2017-11-07T18:45:13.065Z,19.37
2017-11-07T18:47:39.324Z,17.67
2017-11-07T18:50:05.618Z,17.30
2017-11-07T18:52:31.996Z,18.62
2017-11-07T18:54:59.362Z,17.45
2017-11-07T18:57:25.613Z,17.48
2017-11-07T18:59:52.871Z,17.45
2017-11-07T19:02:19.276Z,16.40
2017-11-07T19:04:46.967Z,16.73
2017-11-07T19:07:13.203Z,17.20
2017-11-07T19:09:40.784Z,17.02
2017-11-07T19:12:08.962Z,17.80
2017-11-07T19:14:36.962Z,17.40
2017-11-07T19:17:05.064Z,16.65
2017-11-07T19:19:31.826Z,16.23
2017-11-07T19:21:59.980Z,16.87
2017-11-07T19:24:27.642Z,20.40
2017-11-07T19:26:54.884Z,16.77
2017-11-07T19:29:21.449Z,15.95
2017-11-07T19:31:49.318Z,16.55
2017-11-07T19:34:16.680Z,16.70
2017-11-07T19:36:44.227Z,16.95
2017-11-07T19:39:10.607Z,16.92
2017-11-07T19:41:37.289Z,17.05
2017-11-07T19:44:04.959Z,16.58
2017-11-07T19:46:31.347Z,14.65
2017-11-07T19:48:59.522Z,16.30
2017-11-07T19:51:26.330Z,15.05
2017-11-07T19:53:52.852Z,15.88
2017-11-07T19:56:20.465Z,16.77
2017-11-07T19:58:46.724Z,16.87
2017-11-07T20:01:13.524Z,15.70
2017-11-07T20:03:39.795Z,16.27
2017-11-07T20:06:07.050Z,17.65
2017-11-07T20:08:33.801Z,16.80
2017-11-07T20:11:02.092Z,15.80
2017-11-07T20:13:29.197Z,15.70
2017-11-07T20:15:56.497Z,17.30
2017-11-07T20:18:24.515Z,18.40
2017-11-07T20:20:51.361Z,14.32
2017-11-07T20:23:18.579Z,15.52
2017-11-07T20:25:45.370Z,16.08
2017-11-07T20:28:11.853Z,13.77
2017-11-07T20:30:39.088Z,14.93
2017-11-07T20:33:05.319Z,16.73
2017-11-07T20:35:32.213Z,15.10
2017-11-07T20:37:58.861Z,15.68
2017-11-07T20:40:26.586Z,16.12
2017-11-07T20:42:54.239Z,15.85
2017-11-07T20:45:21.281Z,15.25
2017-11-07T20:47:48.049Z,15.07
2017-11-07T20:50:15.242Z,15.13
2017-11-07T20:52:42.224Z,13.90
2017-11-07T20:55:08.565Z,16.52
2017-11-07T20:57:35.202Z,15.32
2017-11-07T21:00:02.996Z,15.57
2017-11-07T21:02:30.044Z,13.82
2017-11-07T21:14:43.336Z,14.30
2017-11-07T21:17:10.882Z,12.90
2017-11-07T21:19:38.146Z,13.18
2017-11-07T21:22:05.841Z,14.60
2017-11-07T21:24:32.143Z,15.25
2017-11-07T21:26:58.349Z,13.43
2017-11-07T21:29:26.165Z,14.45
2017-11-07T21:31:53.656Z,13.95
2017-11-07T21:34:21.758Z,13.05
2017-11-07T21:36:49.316Z,15.23
2017-11-07T21:39:15.804Z,13.93
2017-11-07T21:41:42.045Z,15.52
2017-11-07T21:44:09.393Z,13.50
2017-11-07T21:46:36.284Z,13.75
2017-11-07T21:49:02.540Z,13.20
2017-11-07T21:51:29.760Z,14.95
2017-11-07T21:53:56.300Z,14.85
2017-11-07T21:56:23.494Z,14.80
2017-11-07T21:58:49.882Z,15.80
2017-11-07T22:01:16.740Z,13.25
2017-11-07T22:03:48.587Z,15.50
2017-11-07T22:06:15.533Z,14.73
2017-11-07T22:08:42.473Z,14.00
2017-11-07T22:11:08.688Z,14.65
2017-11-07T22:13:34.908Z,14.27
2017-11-07T22:16:02.015Z,13.48
2017-11-07T22:18:28.369Z,14.90
2017-11-07T22:20:55.739Z,12.57
2017-11-07T22:23:25.102Z,15.48
2017-11-07T22:25:53.084Z,14.63
2017-11-07T22:28:20.741Z,12.65
2017-11-07T22:30:48.473Z,13.00
2017-11-07T22:33:16.010Z,13.38
2017-11-07T22:35:42.756Z,14.20
2017-11-07T22:38:10.045Z,14.82
2017-11-07T22:40:36.279Z,15.77
2017-11-07T22:43:02.774Z,14.20
2017-11-07T22:45:29.744Z,13.73
2017-11-07T22:47:56.260Z,12.95
2017-11-07T22:50:24.429Z,14.98
2017-11-07T22:52:52.177Z,15.77
2017-11-07T22:55:19.306Z,14.60
2017-11-07T22:57:45.548Z,18.40
2017-11-07T23:00:12.349Z,20.73
2017-11-07T23:02:39.008Z,15.98
2017-11-07T23:05:06.769Z,17.08
2017-11-07T23:07:33.830Z,15.68
2017-11-07T23:10:00.337Z,15.35
2017-11-07T23:12:26.873Z,14.05
2017-11-07T23:14:53.121Z,15.82
2017-11-07T23:17:19.991Z,16.17
2017-11-07T23:19:46.476Z,13.75
2017-11-07T23:22:13.317Z,13.75
2017-11-07T23:24:39.796Z,16.50
2017-11-07T23:27:07.316Z,16.92
2017-11-07T23:29:34.128Z,16.35
2017-11-07T23:32:00.793Z,15.55
2017-11-07T23:34:27.259Z,15.30
2017-11-07T23:36:54.675Z,17.00
2017-11-07T23:39:21.114Z,14.00
2017-11-07T23:41:48.989Z,16.37
2017-11-07T23:44:16.732Z,14.45
2017-11-07T23:56:28.059Z,14.20
2017-11-07T23:58:56.409Z,16.33
